Time;durP1;ratioP1;P1;durP2;ratioP2;P2;SDS_P1;SDS_P2;PMS_P1;PMS_P2;Temp;Humidity;BMP_temperature;BMP_pressure;BME280_temperature;BME280_humidity;BME280_pressure;Samples;Min_cycle;Max_cycle;Signal;HPM_P1;HPM_P2
2021/03/02 00:02:01;;;;;;;4.93;1.60;;;11.00;58.70;;;;;;5038651;28;20650;-85
2021/03/02 00:04:28;;;;;;;10.55;1.77;;;11.00;58.70;;;;;;5054930;28;20045;-82
2021/03/02 00:06:54;;;;;;;10.23;1.90;;;11.00;58.80;;;;;;5045789;28;20043;-85
2021/03/02 00:09:20;;;;;;;3.83;2.00;;;11.00;58.80;;;;;;5052858;28;20033;-85
2021/03/02 00:11:50;;;;;;;7.43;1.17;;;11.00;58.90;;;;;;5067035;28;20488;-85
2021/03/02 00:14:16;;;;;;;6.72;2.33;;;11.00;58.90;;;;;;5055462;28;20055;-84
2021/03/02 00:16:46;;;;;;;6.25;1.60;;;10.90;58.90;;;;;;5055598;28;20045;-86
2021/03/02 00:19:14;;;;;;;6.97;2.53;;;10.90;58.90;;;;;;5038431;28;20052;-85
2021/03/02 00:21:50;;;;;;;11.73;2.00;;;10.90;59.00;;;;;;5038233;28;20049;-85
2021/03/02 00:24:25;;;;;;;2.75;1.38;;;10.90;59.00;;;;;;5051210;28;20411;-86
2021/03/02 00:26:54;;;;;;;8.02;2.30;;;10.90;59.00;;;;;;5050504;28;20409;-86
2021/03/02 00:29:20;;;;;;;6.25;1.83;;;10.90;59.10;;;;;;5038389;28;20033;-85
2021/03/02 00:31:46;;;;;;;8.60;2.20;;;10.80;59.10;;;;;;5054797;28;20040;-86
2021/03/02 00:34:12;;;;;;;2.33;1.38;;;10.80;59.10;;;;;;5054139;28;20044;-85
2021/03/02 00:36:38;;;;;;;5.75;0.98;;;10.70;59.10;;;;;;5051834;28;20036;-85
2021/03/02 00:39:04;;;;;;;5.03;1.45;;;10.70;59.20;;;;;;5039116;28;20033;-85
2021/03/02 00:41:30;;;;;;;7.63;1.35;;;10.70;59.20;;;;;;5057932;28;20041;-84
2021/03/02 00:43:57;;;;;;;5.43;1.75;;;10.70;59.30;;;;;;5049673;28;20403;-85
2021/03/02 00:46:24;;;;;;;6.65;1.83;;;10.70;59.30;;;;;;5047174;28;20042;-85
2021/03/02 00:48:50;;;;;;;5.93;1.38;;;10.60;59.30;;;;;;5053665;28;20036;-85
2021/03/02 00:51:16;;;;;;;2.97;1.38;;;10.60;59.40;;;;;;5052397;28;20060;-85
2021/03/02 00:53:42;;;;;;;5.90;1.70;;;10.60;59.70;;;;;;5052447;28;20405;-85
2021/03/02 00:56:08;;;;;;;7.55;2.25;;;10.60;59.40;;;;;;5056230;28;20075;-85
2021/03/02 00:58:34;;;;;;;6.65;2.20;;;10.60;59.50;;;;;;5054012;28;20036;-84
2021/03/02 01:01:00;;;;;;;5.93;1.98;;;10.60;59.50;;;;;;5054033;28;20040;-85
2021/03/02 01:03:27;;;;;;;8.98;2.05;;;10.50;59.50;;;;;;5036942;28;20294;-85
2021/03/02 01:05:53;;;;;;;3.95;1.48;;;10.50;59.60;;;;;;5050565;28;20045;-85
2021/03/02 01:08:19;;;;;;;10.23;3.10;;;10.50;59.60;;;;;;5061801;28;20048;-85
2021/03/02 01:10:45;;;;;;;4.22;1.65;;;10.50;59.60;;;;;;5058471;28;20040;-84
2021/03/02 01:13:11;;;;;;;7.55;1.83;;;10.40;59.60;;;;;;5037348;28;20041;-85
2021/03/02 01:15:37;;;;;;;5.78;1.70;;;10.40;59.70;;;;;;5054393;28;20033;-85
2021/03/02 01:18:04;;;;;;;6.25;2.15;;;10.40;59.80;;;;;;5050797;28;20370;-85
2021/03/02 01:20:30;;;;;;;5.15;1.15;;;10.40;59.90;;;;;;5054791;28;20486;-84
2021/03/02 01:22:56;;;;;;;1.83;1.17;;;10.40;59.80;;;;;;5051256;28;20036;-84
2021/03/02 01:25:23;;;;;;;6.82;0.95;;;10.30;59.80;;;;;;5057181;28;20489;-86
2021/03/02 01:27:49;;;;;;;6.72;1.90;;;10.30;59.90;;;;;;5054263;28;20032;-85
2021/03/02 01:30:16;;;;;;;4.38;1.50;;;10.30;59.90;;;;;;5051447;28;20033;-86
2021/03/02 01:32:42;;;;;;;5.97;2.20;;;10.20;60.00;;;;;;5053504;28;20478;-85
2021/03/02 01:35:10;;;;;;;5.95;1.95;;;10.20;60.00;;;;;;5021504;28;20044;-85
2021/03/02 01:37:37;;;;;;;4.88;2.03;;;10.20;60.00;;;;;;5054615;28;20025;-86
2021/03/02 01:40:10;;;;;;;2.55;1.20;;;10.20;60.10;;;;;;5054394;28;20041;-85
2021/03/02 01:42:36;;;;;;;3.63;1.77;;;10.10;60.00;;;;;;5067921;28;20040;-85
2021/03/02 01:45:07;;;;;;;6.40;1.90;;;10.10;60.00;;;;;;5053508;28;20386;-82
2021/03/02 01:47:33;;;;;;;7.38;1.85;;;10.10;60.20;;;;;;5057582;28;20478;-84
2021/03/02 01:49:59;;;;;;;8.43;1.83;;;10.10;60.20;;;;;;5042187;28;20041;-85
2021/03/02 01:52:25;;;;;;;6.75;2.35;;;10.10;60.30;;;;;;5058002;28;20355;-84
2021/03/02 01:54:51;;;;;;;12.88;2.70;;;10.00;60.30;;;;;;5058537;28;20024;-85
2021/03/02 01:57:17;;;;;;;5.82;1.75;;;10.00;60.30;;;;;;5056565;28;20025;-84
2021/03/02 01:59:43;;;;;;;7.97;2.38;;;10.00;60.30;;;;;;5054001;28;20413;-85
2021/03/02 02:02:10;;;;;;;4.93;2.47;;;10.00;60.40;;;;;;5059299;28;20037;-85
2021/03/02 02:04:39;;;;;;;6.93;1.95;;;10.00;60.50;;;;;;5062703;28;20404;-86
2021/03/02 02:07:13;;;;;;;3.17;1.27;;;9.90;60.40;;;;;;5031983;28;20044;-84
2021/03/02 02:09:53;;;;;;;3.53;1.35;;;9.90;60.40;;;;;;5054242;28;20040;-85
2021/03/02 02:12:35;;;;;;;3.60;1.63;;;9.90;60.50;;;;;;5068926;28;20032;-85
2021/03/02 02:15:08;;;;;;;;;;;9.90;60.60;;;;;;5038528;28;20024;-85
2021/03/02 02:17:42;;;;;;;3.53;0.85;;;9.80;60.70;;;;;;5069086;28;19913;-85
2021/03/02 02:20:41;;;;;;;5.95;2.70;;;9.80;60.60;;;;;;5058088;28;20032;-84
2021/03/02 02:23:32;;;;;;;4.43;2.10;;;9.70;60.70;;;;;;5057785;28;20381;-85
2021/03/02 02:26:17;;;;;;;11.10;1.55;;;9.70;60.80;;;;;;5063037;28;20418;-85
2021/03/02 02:28:44;;;;;;;6.35;2.60;;;9.70;60.90;;;;;;5074576;28;20436;-85
2021/03/02 02:31:10;;;;;;;11.80;2.25;;;9.60;61.60;;;;;;5036563;28;20052;-85
2021/03/02 02:33:41;;;;;;;7.57;2.15;;;9.60;60.90;;;;;;5032360;28;20374;-84
2021/03/02 02:36:09;;;;;;;3.83;1.35;;;9.60;61.10;;;;;;5054063;28;20021;-84
2021/03/02 02:38:36;;;;;;;4.97;2.17;;;9.60;61.00;;;;;;5048995;28;20029;-85
2021/03/02 02:41:02;;;;;;;13.95;2.53;;;9.50;61.10;;;;;;5056704;28;20040;-85
2021/03/02 02:43:28;;;;;;;3.03;1.45;;;9.50;61.20;;;;;;5045946;28;20508;-85
2021/03/02 02:45:55;;;;;;;2.70;1.63;;;9.40;61.30;;;;;;5048116;28;20044;-84
2021/03/02 02:48:21;;;;;;;5.80;2.00;;;9.40;61.50;;;;;;5055815;28;20032;-85
2021/03/02 02:50:47;;;;;;;13.55;4.03;;;9.30;61.40;;;;;;5054061;28;20477;-85
2021/03/02 02:53:13;;;;;;;8.70;4.45;;;9.30;61.40;;;;;;5057292;28;20047;-85
2021/03/02 02:55:47;;;;;;;8.75;4.57;;;9.30;61.50;;;;;;5037563;28;20041;-85
2021/03/02 02:58:15;;;;;;;13.13;6.15;;;9.30;61.60;;;;;;5037586;28;20033;-84
2021/03/02 03:00:41;;;;;;;13.98;5.95;;;9.20;61.50;;;;;;5056115;28;20051;-86
2021/03/02 03:03:09;;;;;;;12.75;5.43;;;9.20;61.50;;;;;;5044852;28;20049;-84
2021/03/02 03:05:35;;;;;;;12.18;4.45;;;9.20;61.50;;;;;;5028085;28;20049;-85
2021/03/02 03:08:08;;;;;;;8.30;4.32;;;9.20;61.60;;;;;;5050599;28;20037;-84
2021/03/02 03:10:34;;;;;;;15.77;4.80;;;9.10;61.60;;;;;;5050455;28;20041;-85
2021/03/02 03:13:04;;;;;;;11.07;3.78;;;9.10;61.70;;;;;;5033910;28;20041;-84
2021/03/02 03:15:30;;;;;;;8.73;3.75;;;9.10;61.70;;;;;;5050169;28;20037;-84
2021/03/02 03:17:57;;;;;;;12.95;3.47;;;9.10;61.70;;;;;;5051008;28;20766;-85
2021/03/02 03:20:23;;;;;;;12.75;2.88;;;9.10;61.70;;;;;;5046842;28;20044;-85
2021/03/02 03:22:49;;;;;;;7.15;2.22;;;9.10;61.80;;;;;;5051466;28;20029;-85
2021/03/02 03:25:16;;;;;;;4.97;2.55;;;9.10;61.90;;;;;;5022576;28;20060;-85
2021/03/02 03:27:45;;;;;;;3.83;1.10;;;9.00;61.80;;;;;;5051705;28;20029;-84
2021/03/02 03:30:11;;;;;;;5.20;2.17;;;9.00;61.90;;;;;;5048570;28;20029;-85
2021/03/02 03:32:38;;;;;;;6.32;1.50;;;9.00;62.00;;;;;;5047239;28;20397;-85
2021/03/02 03:35:04;;;;;;;6.15;1.85;;;8.90;62.00;;;;;;5019681;28;20040;-85
2021/03/02 03:37:31;;;;;;;3.65;2.10;;;8.90;62.10;;;;;;5049579;28;20037;-84
2021/03/02 03:39:57;;;;;;;5.72;1.77;;;8.90;62.10;;;;;;5055943;28;20037;-86
2021/03/02 03:42:23;;;;;;;5.30;2.25;;;8.90;62.20;;;;;;5055198;28;20056;-85
2021/03/02 03:44:49;;;;;;;5.15;1.40;;;8.80;62.20;;;;;;5070051;28;20044;-86
2021/03/02 03:47:16;;;;;;;13.23;3.35;;;8.90;62.30;;;;;;5057573;28;20072;-85
2021/03/02 03:49:42;;;;;;;10.18;2.13;;;8.90;62.30;;;;;;5056380;28;20040;-85
2021/03/02 03:52:08;;;;;;;6.55;2.53;;;8.80;62.30;;;;;;5036038;28;20041;-85
2021/03/02 03:54:34;;;;;;;7.00;0.98;;;8.80;62.30;;;;;;5037232;28;20032;-83
2021/03/02 03:57:00;;;;;;;7.45;2.42;;;8.80;62.40;;;;;;5051568;28;20399;-84
2021/03/02 03:59:26;;;;;;;5.90;1.92;;;8.80;62.50;;;;;;5037536;28;20033;-85
2021/03/02 04:01:53;;;;;;;3.13;1.27;;;8.70;62.50;;;;;;5064157;28;20036;-84
2021/03/02 04:04:19;;;;;;;7.50;3.70;;;8.70;62.60;;;;;;5042284;28;20029;-84
2021/03/02 04:06:45;;;;;;;7.45;1.55;;;8.70;62.60;;;;;;5056234;28;20388;-85
2021/03/02 04:09:11;;;;;;;6.63;2.45;;;8.70;62.60;;;;;;5058948;28;20025;-84
2021/03/02 04:11:37;;;;;;;4.97;2.33;;;8.70;62.60;;;;;;5060502;28;20048;-85
2021/03/02 04:14:04;;;;;;;11.73;3.08;;;8.70;62.70;;;;;;5056875;28;20500;-85
2021/03/02 04:16:31;;;;;;;3.80;1.75;;;8.60;62.60;;;;;;5042144;28;20029;-85
2021/03/02 04:18:58;;;;;;;5.35;2.65;;;8.70;62.70;;;;;;5056967;28;20036;-82
2021/03/02 04:21:24;;;;;;;8.57;2.28;;;8.70;62.80;;;;;;5053618;28;20029;-85
2021/03/02 04:23:50;;;;;;;7.18;1.80;;;8.70;62.80;;;;;;5051611;28;20049;-85
2021/03/02 04:26:16;;;;;;;4.80;1.75;;;8.70;62.90;;;;;;5014542;28;20064;-85
2021/03/02 04:28:42;;;;;;;8.65;3.05;;;8.70;62.90;;;;;;5058139;28;20036;-85
2021/03/02 04:31:09;;;;;;;5.40;1.88;;;8.70;62.90;;;;;;5055847;28;20044;-86
2021/03/02 04:33:35;;;;;;;4.25;1.60;;;8.70;62.90;;;;;;5059242;28;20492;-83
2021/03/02 04:36:01;;;;;;;7.40;2.42;;;8.70;62.90;;;;;;5036666;28;20048;-83
2021/03/02 04:38:27;;;;;;;4.25;1.27;;;8.70;62.90;;;;;;5060334;28;20036;-85
2021/03/02 04:40:53;;;;;;;8.50;2.30;;;8.70;62.90;;;;;;5053712;28;20037;-86
2021/03/02 04:43:19;;;;;;;5.35;2.22;;;8.80;62.90;;;;;;5054547;28;20033;-86
2021/03/02 04:45:45;;;;;;;10.93;1.88;;;8.80;62.90;;;;;;5049988;28;20040;-84
2021/03/02 04:48:11;;;;;;;6.75;2.10;;;8.80;62.90;;;;;;5052551;28;20064;-87
2021/03/02 04:50:37;;;;;;;6.70;1.52;;;8.80;63.00;;;;;;5063479;28;20029;-85
2021/03/02 04:53:04;;;;;;;7.95;2.83;;;8.80;63.00;;;;;;5057574;28;20405;-86
2021/03/02 04:55:30;;;;;;;6.82;2.28;;;8.80;63.00;;;;;;5061011;28;20062;-85
2021/03/02 04:57:56;;;;;;;4.78;1.55;;;8.70;63.10;;;;;;5058380;28;20512;-85
2021/03/02 05:00:22;;;;;;;3.20;1.17;;;8.70;63.30;;;;;;5052358;28;20048;-85
2021/03/02 05:02:49;;;;;;;6.30;1.00;;;8.70;63.30;;;;;;5056584;28;20393;-85
2021/03/02 05:05:15;;;;;;;7.75;2.55;;;8.60;63.30;;;;;;5054822;28;20056;-87
2021/03/02 05:07:41;;;;;;;6.95;2.55;;;8.60;63.30;;;;;;5055525;28;20033;-85
2021/03/02 05:10:07;;;;;;;4.38;1.08;;;8.60;63.30;;;;;;5044430;28;20044;-84
2021/03/02 05:12:33;;;;;;;4.25;1.48;;;8.60;63.40;;;;;;5054021;28;20048;-85
2021/03/02 05:14:59;;;;;;;3.78;1.40;;;8.60;63.70;;;;;;5050797;28;20025;-85
2021/03/02 05:17:25;;;;;;;0.80;0.45;;;8.60;63.70;;;;;;5053858;28;20044;-86
2021/03/02 05:19:51;;;;;;;3.30;1.52;;;8.60;63.80;;;;;;5054454;28;20033;-85
2021/03/02 05:22:18;;;;;;;4.43;1.15;;;8.50;64.00;;;;;;5054312;28;20405;-84
2021/03/02 05:24:44;;;;;;;7.18;1.92;;;8.40;64.10;;;;;;5039105;28;20055;-85
2021/03/02 05:27:10;;;;;;;5.80;1.65;;;8.40;64.20;;;;;;5052151;28;20032;-87
2021/03/02 05:29:36;;;;;;;1.58;0.88;;;8.30;64.20;;;;;;5038027;28;20041;-87
2021/03/02 05:32:03;;;;;;;4.05;1.63;;;8.30;64.30;;;;;;5063349;28;20041;-88
2021/03/02 05:34:30;;;;;;;8.80;1.58;;;8.30;64.60;;;;;;5057636;28;20055;-85
2021/03/02 05:36:56;;;;;;;4.95;2.28;;;8.20;64.70;;;;;;5058956;28;20032;-86
2021/03/02 05:39:22;;;;;;;5.35;1.45;;;8.10;64.80;;;;;;5052466;28;20033;-86
2021/03/02 05:41:48;;;;;;;2.33;0.63;;;8.10;65.00;;;;;;5060780;28;20512;-88
2021/03/02 05:44:14;;;;;;;2.53;1.50;;;8.10;65.10;;;;;;5035118;28;20029;-85
2021/03/02 05:46:41;;;;;;;4.40;1.63;;;8.10;65.20;;;;;;5055107;28;20046;-85
2021/03/02 05:49:09;;;;;;;9.68;1.35;;;8.00;65.30;;;;;;5036759;28;20056;-86
2021/03/02 05:51:36;;;;;;;2.20;1.35;;;8.00;65.40;;;;;;5048681;28;20469;-86
2021/03/02 05:54:02;;;;;;;2.78;1.42;;;8.00;65.50;;;;;;5050477;28;20036;-85
2021/03/02 05:56:29;;;;;;;5.35;1.90;;;8.00;65.60;;;;;;5056053;28;20037;-86
2021/03/02 05:58:55;;;;;;;1.17;0.80;;;7.90;65.70;;;;;;5054417;28;20036;-86
2021/03/02 06:01:21;;;;;;;2.28;0.75;;;7.90;65.70;;;;;;5033433;28;20050;-86
2021/03/02 06:03:47;;;;;;;3.40;1.20;;;7.90;65.80;;;;;;5061431;28;20020;-86
2021/03/02 06:06:13;;;;;;;5.43;1.65;;;7.90;66.00;;;;;;5051128;28;20060;-85
2021/03/02 06:08:39;;;;;;;6.90;2.25;;;7.80;66.10;;;;;;5052680;28;20502;-85
2021/03/02 06:11:28;;;;;;;5.03;1.73;;;7.80;66.30;;;;;;5054398;28;20033;-86
2021/03/02 06:14:21;;;;;;;2.88;1.13;;;7.80;66.30;;;;;;5050660;28;20045;-86
2021/03/02 06:16:47;;;;;;;3.95;1.05;;;7.80;66.20;;;;;;5054096;28;20397;-86
2021/03/02 06:19:13;;;;;;;5.15;0.65;;;7.80;66.20;;;;;;5053623;28;20044;-86
2021/03/02 06:21:40;;;;;;;4.60;2.22;;;7.80;66.30;;;;;;5054255;28;20032;-86
2021/03/02 06:24:07;;;;;;;4.25;1.33;;;7.80;66.30;;;;;;5050851;28;20073;-85
2021/03/02 06:26:34;;;;;;;3.13;1.27;;;7.80;66.40;;;;;;5036896;28;20509;-85
2021/03/02 06:29:11;;;;;;;3.35;1.20;;;7.80;66.40;;;;;;5059201;28;20044;-85
2021/03/02 06:31:38;;;;;;;3.85;1.08;;;7.80;66.50;;;;;;5057474;28;20041;-85
2021/03/02 06:34:15;;;;;;;3.95;1.48;;;7.70;66.60;;;;;;5058353;28;20078;-85
2021/03/02 06:36:54;;;;;;;7.22;1.45;;;7.70;66.60;;;;;;5074241;28;20041;-84
2021/03/02 06:39:29;;;;;;;3.78;2.25;;;7.70;66.60;;;;;;5072065;28;20515;-82
2021/03/02 06:42:18;;;;;;;6.38;2.05;;;7.80;66.40;;;;;;5054278;28;20033;-85
2021/03/02 06:44:48;;;;;;;2.00;1.13;;;7.80;66.30;;;;;;5067746;28;20429;-85
2021/03/02 06:47:31;;;;;;;3.22;1.48;;;7.90;66.40;;;;;;5052370;28;20040;-85
2021/03/02 06:49:57;;;;;;;4.55;2.25;;;7.80;66.40;;;;;;5071825;28;20032;-85
2021/03/02 06:52:23;;;;;;;6.28;1.55;;;7.80;66.50;;;;;;5058272;28;20041;-84
2021/03/02 06:54:50;;;;;;;5.35;1.95;;;7.80;66.50;;;;;;5066620;28;20025;-85
2021/03/02 06:57:21;;;;;;;3.53;1.58;;;7.80;66.60;;;;;;5055071;28;20040;-85
2021/03/02 07:00:02;;;;;;;3.20;1.77;;;7.80;66.60;;;;;;5055116;28;20037;-84
2021/03/02 07:02:38;;;;;;;2.22;0.98;;;7.80;66.50;;;;;;5065438;28;20040;-85
2021/03/02 07:05:31;;;;;;;11.30;1.27;;;7.80;66.50;;;;;;5041485;28;20021;-85
2021/03/02 07:07:57;;;;;;;5.10;1.90;;;7.80;66.50;;;;;;5054291;28;20037;-85
2021/03/02 07:10:24;;;;;;;8.35;1.45;;;7.80;66.50;;;;;;5056847;28;20037;-85
2021/03/02 07:12:53;;;;;;;2.88;1.70;;;7.80;66.70;;;;;;5039621;28;20020;-84
2021/03/02 07:15:20;;;;;;;6.97;1.85;;;7.80;66.80;;;;;;5055414;28;20033;-85
2021/03/02 07:17:49;;;;;;;5.70;1.90;;;7.80;66.70;;;;;;5055150;28;20024;-84
2021/03/02 07:20:17;;;;;;;5.63;2.42;;;7.90;66.70;;;;;;5041047;28;20025;-85
2021/03/02 07:22:46;;;;;;;6.88;2.28;;;7.90;66.70;;;;;;5062987;28;20382;-85
2021/03/02 07:25:12;;;;;;;5.85;1.92;;;7.90;66.60;;;;;;5063949;28;20040;-87
2021/03/02 07:27:42;;;;;;;2.88;1.60;;;7.90;66.60;;;;;;5056719;28;20036;-84
2021/03/02 07:30:09;;;;;;;3.53;1.98;;;8.00;66.60;;;;;;5051241;28;20025;-84
2021/03/02 07:32:36;;;;;;;29.63;3.00;;;8.00;66.60;;;;;;5035856;28;20059;-86
2021/03/02 07:35:03;;;;;;;4.55;2.00;;;8.00;66.50;;;;;;5039770;28;20029;-86
2021/03/02 07:37:29;;;;;;;6.57;1.77;;;8.10;66.50;;;;;;5056560;28;20497;-88
2021/03/02 07:40:08;;;;;;;2.90;1.05;;;8.10;66.50;;;;;;5050291;28;20033;-85
2021/03/02 07:42:35;;;;;;;0.55;0.45;;;8.20;66.60;;;;;;5050544;28;20497;-87
2021/03/02 07:45:05;;;;;;;2.60;0.95;;;8.20;66.70;;;;;;5050308;28;20021;-87
2021/03/02 07:47:47;;;;;;;7.88;1.15;;;8.20;66.90;;;;;;5049596;28;20052;-86
2021/03/02 07:50:22;;;;;;;3.13;0.88;;;8.20;67.00;;;;;;5034779;28;20067;-86
2021/03/02 07:53:09;;;;;;;2.63;0.93;;;8.30;67.10;;;;;;5048686;28;20025;-85
2021/03/02 07:55:35;;;;;;;2.55;1.50;;;8.50;66.80;;;;;;5041493;28;20040;-84
2021/03/02 07:58:20;;;;;;;5.13;2.35;;;8.70;66.30;;;;;;5050873;28;20063;-85
2021/03/02 08:00:47;;;;;;;3.88;2.00;;;9.00;65.80;;;;;;5028835;28;20063;-87
2021/03/02 08:03:25;;;;;;;2.67;0.90;;;9.10;65.50;;;;;;5049427;28;20389;-86
2021/03/02 08:05:53;;;;;;;5.07;0.40;;;9.20;65.40;;;;;;5050294;28;20045;-86
2021/03/02 08:08:25;;;;;;;4.47;1.58;;;9.40;65.40;;;;;;5047676;28;20470;-86
2021/03/02 08:10:52;;;;;;;2.67;1.25;;;9.50;65.40;;;;;;5049077;28;20033;-86
2021/03/02 08:13:37;;;;;;;14.23;1.85;;;9.60;65.30;;;;;;5049887;28;20029;-86
2021/03/02 08:16:05;;;;;;;3.17;1.38;;;9.70;65.10;;;;;;5050935;28;20040;-87
2021/03/02 08:18:36;;;;;;;2.83;1.17;;;9.80;64.90;;;;;;5051113;28;20501;-89
2021/03/02 08:21:08;;;;;;;5.45;1.52;;;10.00;64.70;;;;;;5047295;28;20040;-88
2021/03/02 08:23:43;;;;;;;0.00;0.00;;;10.20;64.50;;;;;;5052324;28;20133;-89
2021/03/02 08:26:31;;;;;;;3.17;1.05;;;10.30;65.30;;;;;;5060494;28;20045;-90
2021/03/02 08:29:10;;;;;;;6.93;2.33;;;10.40;64.40;;;;;;5034221;28;20397;-85
2021/03/02 08:31:38;;;;;;;6.28;1.10;;;10.50;64.20;;;;;;5052372;28;20036;-89
2021/03/02 08:34:05;;;;;;;2.17;1.23;;;10.60;64.10;;;;;;5032625;28;20036;-87
2021/03/02 08:36:31;;;;;;;2.47;0.47;;;10.70;64.10;;;;;;5056286;28;20035;-90
2021/03/02 08:38:57;;;;;;;3.28;1.35;;;10.80;64.10;;;;;;5030272;28;20040;-88
2021/03/02 08:41:33;;;;;;;2.08;1.13;;;11.00;64.10;;;;;;5050574;28;20402;-87
2021/03/02 08:44:00;;;;;;;2.85;1.52;;;11.10;64.10;;;;;;5051550;28;20041;-91
2021/03/02 08:46:35;;;;;;;8.77;1.65;;;11.20;63.60;;;;;;5048782;28;20049;-94
2021/03/02 08:49:28;;;;;;;3.75;1.30;;;11.40;63.40;;;;;;5028419;28;20029;-89
2021/03/02 08:51:58;;;;;;;0.88;0.55;;;11.70;63.10;;;;;;5062866;28;20044;-87
2021/03/02 08:54:24;;;;;;;7.88;2.17;;;12.00;62.80;;;;;;5041801;28;20056;-89
2021/03/02 08:57:01;;;;;;;5.22;0.45;;;12.20;62.50;;;;;;5049686;28;20489;-87
2021/03/02 08:59:31;;;;;;;4.07;1.13;;;12.30;62.20;;;;;;5051279;28;20029;-86
2021/03/02 09:01:57;;;;;;;4.15;1.13;;;12.50;62.10;;;;;;5025858;28;20040;-87
2021/03/02 09:04:26;;;;;;;3.78;1.05;;;12.80;61.80;;;;;;5038132;28;20478;-88
2021/03/02 09:06:52;;;;;;;3.08;1.90;;;13.00;61.50;;;;;;5027251;28;20053;-88
2021/03/02 09:09:19;;;;;;;1.35;0.75;;;13.10;61.00;;;;;;5036336;28;20040;-87
2021/03/02 09:11:51;;;;;;;4.25;1.88;;;13.10;61.20;;;;;;5050923;28;20033;-87
2021/03/02 09:14:18;;;;;;;5.10;1.02;;;13.10;61.50;;;;;;5050699;28;20029;-88
2021/03/02 09:17:02;;;;;;;4.07;1.92;;;13.10;61.60;;;;;;5051549;28;20478;-86
2021/03/02 09:19:28;;;;;;;3.97;1.33;;;13.20;61.50;;;;;;5041582;28;20047;-88
2021/03/02 09:22:05;;;;;;;3.05;1.67;;;13.40;61.40;;;;;;5058083;28;20028;-88
2021/03/02 09:24:36;;;;;;;5.97;2.05;;;13.60;61.00;;;;;;5055731;28;20031;-85
2021/03/02 09:27:04;;;;;;;2.00;1.08;;;13.80;60.50;;;;;;5033724;28;20052;-86
2021/03/02 09:29:40;;;;;;;5.00;1.02;;;14.00;60.20;;;;;;5038296;28;20041;-85
2021/03/02 09:32:06;;;;;;;2.47;1.05;;;14.20;60.00;;;;;;5034601;28;20516;-85
2021/03/02 09:34:40;;;;;;;1.55;1.05;;;14.40;59.90;;;;;;5053588;28;20342;-85
2021/03/02 09:37:08;;;;;;;1.30;0.80;;;14.50;59.70;;;;;;5037004;28;20032;-87
2021/03/02 09:39:35;;;;;;;2.33;0.80;;;14.60;59.50;;;;;;5037703;28;20036;-87
2021/03/02 09:42:01;;;;;;;5.65;1.58;;;14.60;59.40;;;;;;5032916;28;20060;-87
2021/03/02 09:44:32;;;;;;;2.70;1.38;;;14.60;59.50;;;;;;5063491;28;20033;-88
2021/03/02 09:47:00;;;;;;;2.42;0.82;;;14.50;59.60;;;;;;5036513;28;20055;-88
2021/03/02 09:49:31;;;;;;;3.53;1.30;;;14.60;59.50;;;;;;5020633;28;20041;-87
2021/03/02 09:51:57;;;;;;;4.40;1.63;;;14.60;59.50;;;;;;5055761;28;20058;-88
2021/03/02 09:54:23;;;;;;;7.85;1.42;;;14.50;59.60;;;;;;5053976;28;20380;-88
2021/03/02 09:56:56;;;;;;;2.53;0.88;;;14.60;59.60;;;;;;5034031;28;20033;-87
2021/03/02 09:59:23;;;;;;;11.57;1.95;;;14.70;59.40;;;;;;5055066;28;20091;-91
2021/03/02 10:01:49;;;;;;;4.28;0.82;;;14.80;59.40;;;;;;5053985;28;20040;-89
2021/03/02 10:04:16;;;;;;;2.45;1.10;;;14.90;59.20;;;;;;5057521;28;20029;-87
2021/03/02 10:06:42;;;;;;;2.20;0.70;;;15.00;59.20;;;;;;5057560;28;20048;-87
2021/03/02 10:09:22;;;;;;;1.45;0.95;;;15.10;58.80;;;;;;5054570;28;20021;-86
2021/03/02 10:11:50;;;;;;;3.90;0.57;;;15.20;58.50;;;;;;5054897;28;20099;-87
2021/03/02 10:14:16;;;;;;;4.43;1.15;;;15.30;58.50;;;;;;5042209;28;20029;-86
2021/03/02 10:16:44;;;;;;;7.35;0.65;;;15.40;58.30;;;;;;5057119;28;20044;-87
2021/03/02 10:19:31;;;;;;;3.88;1.05;;;15.40;58.20;;;;;;5061549;28;20373;-88
2021/03/02 10:21:58;;;;;;;3.45;1.20;;;15.40;58.00;;;;;;5066672;28;20036;-88
2021/03/02 10:24:34;;;;;;;3.10;1.25;;;15.50;58.00;;;;;;5054481;28;20028;-87
2021/03/02 10:27:10;;;;;;;3.22;1.13;;;15.60;57.90;;;;;;5030897;28;20496;-88
2021/03/02 10:29:36;;;;;;;0.60;0.40;;;15.60;57.40;;;;;;5056280;28;20037;-89
2021/03/02 10:32:03;;;;;;;4.53;0.93;;;15.60;57.20;;;;;;5041236;28;20040;-83
2021/03/02 10:34:33;;;;;;;0.40;0.30;;;15.60;57.00;;;;;;5057427;28;20477;-82
2021/03/02 10:37:02;;;;;;;7.47;0.82;;;15.70;56.90;;;;;;5057851;28;20033;-81
2021/03/02 10:39:29;;;;;;;2.85;0.90;;;15.70;56.60;;;;;;5057174;28;20477;-81
2021/03/02 10:41:55;;;;;;;2.92;0.43;;;15.60;56.00;;;;;;5036599;28;20051;-81
2021/03/02 10:44:21;;;;;;;1.25;0.57;;;15.60;56.20;;;;;;5056255;28;20029;-81
2021/03/02 10:46:47;;;;;;;2.28;0.75;;;15.60;56.00;;;;;;5060035;28;20366;-81
2021/03/02 10:49:13;;;;;;;5.45;0.85;;;15.70;55.90;;;;;;5061751;28;20031;-81
2021/03/02 10:51:39;;;;;;;1.33;0.45;;;15.80;55.70;;;;;;5065382;28;20032;-83
2021/03/02 10:54:06;;;;;;;1.50;0.60;;;15.90;55.60;;;;;;5040387;28;20044;-86
2021/03/02 10:56:32;;;;;;;1.52;0.50;;;16.00;55.50;;;;;;5038093;28;20044;-83
2021/03/02 10:58:58;;;;;;;0.65;0.17;;;16.10;55.30;;;;;;5056281;28;20044;-80
2021/03/02 11:01:25;;;;;;;2.20;0.90;;;16.10;55.10;;;;;;5055698;28;20406;-79
2021/03/02 11:03:51;;;;;;;1.05;0.55;;;16.20;55.00;;;;;;5035706;28;20038;-80
2021/03/02 11:06:21;;;;;;;0.80;0.35;;;16.20;54.80;;;;;;5066775;28;20037;-80
2021/03/02 11:08:48;;;;;;;3.75;0.57;;;16.20;54.60;;;;;;5067165;28;20045;-82
2021/03/02 11:11:15;;;;;;;2.05;0.52;;;16.30;54.50;;;;;;5055862;28;20485;-83
2021/03/02 11:13:41;;;;;;;2.45;0.70;;;16.40;54.40;;;;;;5041143;28;20044;-84
2021/03/02 11:16:08;;;;;;;1.95;0.70;;;16.50;54.30;;;;;;5056959;28;20033;-83
2021/03/02 11:18:34;;;;;;;2.63;0.70;;;16.70;54.10;;;;;;5039641;28;20508;-83
2021/03/02 11:21:00;;;;;;;1.17;0.38;;;17.00;53.60;;;;;;5051730;28;20025;-82
2021/03/02 11:23:27;;;;;;;5.28;0.65;;;17.00;53.30;;;;;;5056554;28;20389;-81
2021/03/02 11:25:53;;;;;;;3.33;0.38;;;17.10;53.30;;;;;;5055170;28;20032;-86
2021/03/02 11:28:19;;;;;;;2.85;0.82;;;17.20;53.30;;;;;;5060011;28;20056;-89
2021/03/02 11:30:46;;;;;;;2.28;0.55;;;17.30;53.00;;;;;;5048867;28;20033;-88
2021/03/02 11:33:13;;;;;;;3.47;0.70;;;17.40;52.90;;;;;;5052492;28;20017;-87
2021/03/02 11:35:42;;;;;;;0.55;0.35;;;17.30;52.90;;;;;;5037660;28;20099;-86
2021/03/02 11:38:08;;;;;;;1.45;0.40;;;17.30;52.90;;;;;;5055835;28;20033;-85
2021/03/02 11:40:34;;;;;;;1.88;0.73;;;17.30;52.80;;;;;;5055838;28;20037;-80
2021/03/02 11:43:01;;;;;;;1.10;0.50;;;17.40;52.90;;;;;;5055323;28;20059;-82
2021/03/02 11:45:28;;;;;;;3.28;0.90;;;17.50;52.80;;;;;;5049372;28;20559;-83
2021/03/02 11:47:54;;;;;;;3.38;1.48;;;17.50;52.80;;;;;;5049221;28;20056;-84
2021/03/02 11:50:20;;;;;;;0.80;0.20;;;17.60;52.70;;;;;;5063448;28;20030;-84
2021/03/02 11:52:47;;;;;;;6.28;1.13;;;17.60;52.40;;;;;;5050791;28;20036;-83
2021/03/02 11:55:14;;;;;;;7.38;0.93;;;17.60;52.60;;;;;;5049664;28;20037;-83
2021/03/02 11:57:40;;;;;;;8.75;2.15;;;17.60;52.60;;;;;;5049822;28;20055;-82
2021/03/02 12:00:08;;;;;;;0.73;0.28;;;17.60;52.60;;;;;;5049517;28;20044;-83
2021/03/02 12:02:34;;;;;;;3.92;1.42;;;17.50;52.70;;;;;;5052116;28;20036;-83
2021/03/02 12:05:01;;;;;;;3.03;0.43;;;17.40;53.00;;;;;;5050579;28;20463;-83
2021/03/02 12:07:27;;;;;;;1.15;0.45;;;17.40;53.20;;;;;;5029412;28;20037;-83
2021/03/02 12:09:53;;;;;;;3.08;0.68;;;17.60;53.30;;;;;;5050269;28;20025;-83
2021/03/02 12:12:19;;;;;;;3.80;0.80;;;17.70;53.20;;;;;;5052012;28;20025;-82
2021/03/02 12:14:45;;;;;;;1.13;0.22;;;17.80;53.20;;;;;;5050522;28;20496;-82
2021/03/02 12:17:12;;;;;;;7.50;1.00;;;17.90;53.40;;;;;;5034147;28;20036;-82
2021/03/02 12:19:38;;;;;;;1.10;0.50;;;18.00;53.50;;;;;;5029799;28;20052;-82
2021/03/02 12:22:04;;;;;;;2.85;0.85;;;18.10;53.40;;;;;;5050483;28;20079;-82
2021/03/02 12:24:30;;;;;;;11.98;0.82;;;18.00;53.30;;;;;;5055038;28;20769;-82
2021/03/02 12:26:57;;;;;;;1.40;0.43;;;18.00;53.60;;;;;;5034672;28;20036;-82
2021/03/02 12:29:24;;;;;;;0.60;0.20;;;18.00;53.70;;;;;;5044763;28;20036;-83
2021/03/02 12:31:50;;;;;;;1.92;0.60;;;18.00;53.90;;;;;;5055399;28;20503;-86
2021/03/02 12:34:16;;;;;;;1.85;0.63;;;18.00;54.00;;;;;;5054683;28;20040;-80
2021/03/02 12:36:42;;;;;;;3.75;0.75;;;18.20;53.90;;;;;;5054683;28;20037;-89
2021/03/02 12:39:08;;;;;;;1.88;0.75;;;18.20;53.80;;;;;;5050635;28;20029;-82
2021/03/02 12:41:38;;;;;;;5.00;1.23;;;18.30;53.80;;;;;;5053805;28;20049;-81
2021/03/02 12:44:04;;;;;;;0.73;0.45;;;18.40;53.80;;;;;;5054080;28;20043;-85
2021/03/02 12:46:31;;;;;;;2.13;0.50;;;18.50;53.70;;;;;;5053007;28;20513;-83
2021/03/02 12:48:57;;;;;;;2.65;0.45;;;18.60;53.70;;;;;;5037268;28;20039;-82
2021/03/02 12:51:23;;;;;;;2.17;0.63;;;18.70;53.60;;;;;;5053270;28;20469;-86
2021/03/02 12:53:49;;;;;;;0.82;0.38;;;18.70;54.10;;;;;;5051463;28;20021;-82
2021/03/02 12:56:15;;;;;;;1.30;0.52;;;18.70;53.50;;;;;;5056131;28;20727;-84
2021/03/02 12:58:41;;;;;;;7.97;0.75;;;18.60;53.40;;;;;;5039763;28;20033;-82